Terminal Aerodrome Forecast
Issued by NWS South Bend, IN

Home | Current Version | Previous Version | Graphics & Text | Print | Product List | Glossary On
Versions: 1 2 3 4 5 6 7 8 9 10 11 12 13 14
000
FTUS43 KIWX 150500
TAFSBN
TAF
KSBN 150520Z 1506/1606 05005KT P6SM SCT250
     FM151500 10014G21KT P6SM BKN250
     FM160300 10013KT P6SM OVC150=

USA.gov is the U.S. government's official web portal to all federal, state and local government web resources and services.